sensor_id;sensor_type;location;lat;lon;timestamp;temperature;humidity
35531;DHT22;21637;53.352;-6.356;2023-06-14T00:00:42;17.10;99.90
35531;DHT22;21637;53.352;-6.356;2023-06-14T00:03:08;17.00;99.90
35531;DHT22;21637;53.352;-6.356;2023-06-14T00:05:36;16.90;99.90
35531;DHT22;21637;53.352;-6.356;2023-06-14T00:08:12;16.80;99.90
35531;DHT22;21637;53.352;-6.356;2023-06-14T00:10:37;16.80;99.90
35531;DHT22;21637;53.352;-6.356;2023-06-14T00:13:04;16.70;99.90
35531;DHT22;21637;53.352;-6.356;2023-06-14T00:15:33;16.70;99.90
35531;DHT22;21637;53.352;-6.356;2023-06-14T00:17:59;16.60;99.90
35531;DHT22;21637;53.352;-6.356;2023-06-14T00:20:29;16.50;99.90
35531;DHT22;21637;53.352;-6.356;2023-06-14T00:22:56;16.50;99.90
35531;DHT22;21637;53.352;-6.356;2023-06-14T00:25:23;16.50;99.90
35531;DHT22;21637;53.352;-6.356;2023-06-14T00:27:52;16.50;99.90
35531;DHT22;21637;53.352;-6.356;2023-06-14T00:30:18;16.50;99.90
35531;DHT22;21637;53.352;-6.356;2023-06-14T00:32:45;16.40;99.90
35531;DHT22;21637;53.352;-6.356;2023-06-14T00:35:12;16.40;99.90
35531;DHT22;21637;53.352;-6.356;2023-06-14T00:37:38;16.50;99.90
35531;DHT22;21637;53.352;-6.356;2023-06-14T00:40:04;16.40;99.90
35531;DHT22;21637;53.352;-6.356;2023-06-14T00:42:31;16.50;99.90
35531;DHT22;21637;53.352;-6.356;2023-06-14T00:44:56;16.40;99.90
35531;DHT22;21637;53.352;-6.356;2023-06-14T00:47:22;16.40;99.90
35531;DHT22;21637;53.352;-6.356;2023-06-14T00:49:49;16.30;99.90
35531;DHT22;21637;53.352;-6.356;2023-06-14T00:52:17;16.30;99.90
35531;DHT22;21637;53.352;-6.356;2023-06-14T00:54:43;16.30;99.90
35531;DHT22;21637;53.352;-6.356;2023-06-14T00:57:09;16.30;99.90
35531;DHT22;21637;53.352;-6.356;2023-06-14T00:59:47;16.20;99.90
35531;DHT22;21637;53.352;-6.356;2023-06-14T01:02:14;16.30;99.90
35531;DHT22;21637;53.352;-6.356;2023-06-14T01:04:41;16.30;99.90
35531;DHT22;21637;53.352;-6.356;2023-06-14T01:15:06;16.20;99.90
35531;DHT22;21637;53.352;-6.356;2023-06-14T01:17:33;16.20;99.90
35531;DHT22;21637;53.352;-6.356;2023-06-14T01:20:02;16.10;99.90
35531;DHT22;21637;53.352;-6.356;2023-06-14T01:22:28;16.10;99.90
35531;DHT22;21637;53.352;-6.356;2023-06-14T01:24:55;16.00;99.90
35531;DHT22;21637;53.352;-6.356;2023-06-14T01:27:26;16.10;99.90
35531;DHT22;21637;53.352;-6.356;2023-06-14T01:29:55;16.10;99.90
35531;DHT22;21637;53.352;-6.356;2023-06-14T01:32:26;16.10;99.90
35531;DHT22;21637;53.352;-6.356;2023-06-14T01:34:52;16.00;99.90
35531;DHT22;21637;53.352;-6.356;2023-06-14T01:37:19;16.00;99.90
35531;DHT22;21637;53.352;-6.356;2023-06-14T01:39:47;16.00;99.90
35531;DHT22;21637;53.352;-6.356;2023-06-14T01:42:14;16.10;99.90
35531;DHT22;21637;53.352;-6.356;2023-06-14T01:44:43;16.10;99.90
35531;DHT22;21637;53.352;-6.356;2023-06-14T01:47:09;16.10;99.90
35531;DHT22;21637;53.352;-6.356;2023-06-14T01:49:36;16.10;99.90
35531;DHT22;21637;53.352;-6.356;2023-06-14T01:52:01;16.10;99.90
35531;DHT22;21637;53.352;-6.356;2023-06-14T01:54:27;16.10;99.90
35531;DHT22;21637;53.352;-6.356;2023-06-14T01:56:54;16.20;99.90
35531;DHT22;21637;53.352;-6.356;2023-06-14T01:59:20;16.20;99.90
35531;DHT22;21637;53.352;-6.356;2023-06-14T02:01:46;16.20;99.90
35531;DHT22;21637;53.352;-6.356;2023-06-14T02:04:12;16.20;99.90
35531;DHT22;21637;53.352;-6.356;2023-06-14T02:06:37;16.20;99.90
35531;DHT22;21637;53.352;-6.356;2023-06-14T02:09:04;16.20;99.90
35531;DHT22;21637;53.352;-6.356;2023-06-14T02:11:29;16.20;99.90
35531;DHT22;21637;53.352;-6.356;2023-06-14T02:13:55;16.30;99.90
35531;DHT22;21637;53.352;-6.356;2023-06-14T02:16:21;16.40;99.90
35531;DHT22;21637;53.352;-6.356;2023-06-14T02:18:47;16.40;99.90
35531;DHT22;21637;53.352;-6.356;2023-06-14T02:21:14;16.50;99.90
35531;DHT22;21637;53.352;-6.356;2023-06-14T02:23:40;16.50;99.90
35531;DHT22;21637;53.352;-6.356;2023-06-14T02:26:06;16.60;99.90
35531;DHT22;21637;53.352;-6.356;2023-06-14T02:28:32;16.60;99.90
35531;DHT22;21637;53.352;-6.356;2023-06-14T02:30:57;16.60;99.90
35531;DHT22;21637;53.352;-6.356;2023-06-14T02:33:23;16.60;99.90
35531;DHT22;21637;53.352;-6.356;2023-06-14T02:35:50;16.70;99.90
35531;DHT22;21637;53.352;-6.356;2023-06-14T02:38:16;16.70;99.90
35531;DHT22;21637;53.352;-6.356;2023-06-14T02:40:42;16.60;99.90
35531;DHT22;21637;53.352;-6.356;2023-06-14T02:43:08;16.60;99.90
35531;DHT22;21637;53.352;-6.356;2023-06-14T02:45:34;16.60;99.90
35531;DHT22;21637;53.352;-6.356;2023-06-14T02:48:00;16.60;99.90
35531;DHT22;21637;53.352;-6.356;2023-06-14T02:50:25;16.60;99.90
35531;DHT22;21637;53.352;-6.356;2023-06-14T02:52:53;16.60;99.90
35531;DHT22;21637;53.352;-6.356;2023-06-14T02:55:21;16.60;99.90
35531;DHT22;21637;53.352;-6.356;2023-06-14T02:57:47;16.60;99.90
35531;DHT22;21637;53.352;-6.356;2023-06-14T03:00:13;16.60;99.90
35531;DHT22;21637;53.352;-6.356;2023-06-14T03:02:39;16.60;99.90
35531;DHT22;21637;53.352;-6.356;2023-06-14T03:05:05;16.60;99.90
35531;DHT22;21637;53.352;-6.356;2023-06-14T03:07:32;16.50;99.90
35531;DHT22;21637;53.352;-6.356;2023-06-14T03:09:58;16.50;99.90
35531;DHT22;21637;53.352;-6.356;2023-06-14T03:12:24;16.60;99.90
35531;DHT22;21637;53.352;-6.356;2023-06-14T03:14:50;16.60;99.90
35531;DHT22;21637;53.352;-6.356;2023-06-14T03:17:17;16.60;99.90
35531;DHT22;21637;53.352;-6.356;2023-06-14T03:19:43;16.70;99.90
35531;DHT22;21637;53.352;-6.356;2023-06-14T03:22:08;16.70;99.90
35531;DHT22;21637;53.352;-6.356;2023-06-14T03:24:37;16.70;99.90
35531;DHT22;21637;53.352;-6.356;2023-06-14T03:27:03;16.70;99.90
35531;DHT22;21637;53.352;-6.356;2023-06-14T03:29:29;16.80;99.90
35531;DHT22;21637;53.352;-6.356;2023-06-14T03:32:02;16.80;99.90
35531;DHT22;21637;53.352;-6.356;2023-06-14T03:34:28;16.90;99.90
35531;DHT22;21637;53.352;-6.356;2023-06-14T03:36:54;17.00;99.90
35531;DHT22;21637;53.352;-6.356;2023-06-14T03:39:20;17.00;99.90
35531;DHT22;21637;53.352;-6.356;2023-06-14T03:41:46;17.00;99.90
35531;DHT22;21637;53.352;-6.356;2023-06-14T03:44:15;17.10;99.90
35531;DHT22;21637;53.352;-6.356;2023-06-14T03:46:42;17.30;99.90
35531;DHT22;21637;53.352;-6.356;2023-06-14T03:49:08;17.40;99.90
35531;DHT22;21637;53.352;-6.356;2023-06-14T03:51:33;17.40;99.90
35531;DHT22;21637;53.352;-6.356;2023-06-14T03:54:01;17.60;99.90
35531;DHT22;21637;53.352;-6.356;2023-06-14T03:56:26;17.70;99.90
35531;DHT22;21637;53.352;-6.356;2023-06-14T03:58:52;17.80;99.90
35531;DHT22;21637;53.352;-6.356;2023-06-14T04:01:18;17.90;99.90
35531;DHT22;21637;53.352;-6.356;2023-06-14T04:03:44;18.00;99.90
35531;DHT22;21637;53.352;-6.356;2023-06-14T04:06:09;18.00;99.90
35531;DHT22;21637;53.352;-6.356;2023-06-14T04:08:35;18.10;99.90
35531;DHT22;21637;53.352;-6.356;2023-06-14T04:11:01;18.10;99.90
35531;DHT22;21637;53.352;-6.356;2023-06-14T04:13:27;18.20;99.90
35531;DHT22;21637;53.352;-6.356;2023-06-14T04:15:53;18.20;99.90
35531;DHT22;21637;53.352;-6.356;2023-06-14T04:18:19;18.30;99.90
35531;DHT22;21637;53.352;-6.356;2023-06-14T04:20:46;18.30;99.90
35531;DHT22;21637;53.352;-6.356;2023-06-14T04:23:15;18.40;99.90
35531;DHT22;21637;53.352;-6.356;2023-06-14T04:25:43;18.40;99.90
35531;DHT22;21637;53.352;-6.356;2023-06-14T04:28:14;18.50;99.90
35531;DHT22;21637;53.352;-6.356;2023-06-14T04:30:43;18.50;99.90
35531;DHT22;21637;53.352;-6.356;2023-06-14T04:33:10;18.50;99.90
35531;DHT22;21637;53.352;-6.356;2023-06-14T04:35:37;18.60;99.90
35531;DHT22;21637;53.352;-6.356;2023-06-14T04:38:03;18.50;99.90
35531;DHT22;21637;53.352;-6.356;2023-06-14T04:40:35;18.50;99.90
35531;DHT22;21637;53.352;-6.356;2023-06-14T04:43:01;18.50;99.90
35531;DHT22;21637;53.352;-6.356;2023-06-14T04:45:32;18.60;99.90
35531;DHT22;21637;53.352;-6.356;2023-06-14T04:48:00;18.60;99.90
35531;DHT22;21637;53.352;-6.356;2023-06-14T04:50:26;18.60;99.90
35531;DHT22;21637;53.352;-6.356;2023-06-14T04:52:53;18.60;99.90
35531;DHT22;21637;53.352;-6.356;2023-06-14T04:55:19;18.60;99.90
35531;DHT22;21637;53.352;-6.356;2023-06-14T04:57:45;18.70;99.90
35531;DHT22;21637;53.352;-6.356;2023-06-14T05:00:11;18.70;99.90
35531;DHT22;21637;53.352;-6.356;2023-06-14T05:02:37;18.70;99.90
35531;DHT22;21637;53.352;-6.356;2023-06-14T05:05:04;18.80;99.90
35531;DHT22;21637;53.352;-6.356;2023-06-14T05:07:33;18.80;99.90
35531;DHT22;21637;53.352;-6.356;2023-06-14T05:09:59;18.80;99.90
35531;DHT22;21637;53.352;-6.356;2023-06-14T05:12:25;18.90;99.90
35531;DHT22;21637;53.352;-6.356;2023-06-14T05:14:51;18.90;99.90
35531;DHT22;21637;53.352;-6.356;2023-06-14T05:17:16;19.00;99.90
35531;DHT22;21637;53.352;-6.356;2023-06-14T05:19:42;19.00;99.90
35531;DHT22;21637;53.352;-6.356;2023-06-14T05:22:08;19.10;99.90
35531;DHT22;21637;53.352;-6.356;2023-06-14T05:24:34;19.10;99.90
35531;DHT22;21637;53.352;-6.356;2023-06-14T05:27:00;19.10;99.90
35531;DHT22;21637;53.352;-6.356;2023-06-14T05:29:26;19.20;99.90
35531;DHT22;21637;53.352;-6.356;2023-06-14T05:31:53;19.30;99.90
35531;DHT22;21637;53.352;-6.356;2023-06-14T05:34:18;19.30;99.90
35531;DHT22;21637;53.352;-6.356;2023-06-14T05:36:44;19.40;99.90
35531;DHT22;21637;53.352;-6.356;2023-06-14T05:39:10;19.50;99.90
35531;DHT22;21637;53.352;-6.356;2023-06-14T05:41:36;19.50;99.90
35531;DHT22;21637;53.352;-6.356;2023-06-14T05:44:02;19.60;99.90
35531;DHT22;21637;53.352;-6.356;2023-06-14T05:46:27;19.70;99.90
35531;DHT22;21637;53.352;-6.356;2023-06-14T05:48:54;19.70;99.90
35531;DHT22;21637;53.352;-6.356;2023-06-14T05:51:20;19.80;99.90
35531;DHT22;21637;53.352;-6.356;2023-06-14T05:53:46;19.80;99.90
35531;DHT22;21637;53.352;-6.356;2023-06-14T05:56:13;19.90;99.90
35531;DHT22;21637;53.352;-6.356;2023-06-14T05:58:39;19.90;99.90
35531;DHT22;21637;53.352;-6.356;2023-06-14T06:01:05;19.90;99.90
35531;DHT22;21637;53.352;-6.356;2023-06-14T06:03:31;19.90;99.90
35531;DHT22;21637;53.352;-6.356;2023-06-14T06:05:58;20.00;99.90
35531;DHT22;21637;53.352;-6.356;2023-06-14T06:08:23;20.10;99.90
35531;DHT22;21637;53.352;-6.356;2023-06-14T06:10:49;20.20;99.90
35531;DHT22;21637;53.352;-6.356;2023-06-14T06:13:15;20.20;99.90
35531;DHT22;21637;53.352;-6.356;2023-06-14T06:15:41;20.30;99.90
35531;DHT22;21637;53.352;-6.356;2023-06-14T06:18:07;20.30;99.90
35531;DHT22;21637;53.352;-6.356;2023-06-14T06:20:33;20.50;99.90
35531;DHT22;21637;53.352;-6.356;2023-06-14T06:22:59;20.50;99.90
35531;DHT22;21637;53.352;-6.356;2023-06-14T06:25:28;20.60;99.90
35531;DHT22;21637;53.352;-6.356;2023-06-14T06:27:54;20.70;99.90
35531;DHT22;21637;53.352;-6.356;2023-06-14T06:30:22;20.80;99.90
35531;DHT22;21637;53.352;-6.356;2023-06-14T06:32:48;20.80;99.90
35531;DHT22;21637;53.352;-6.356;2023-06-14T06:35:13;20.80;99.90
35531;DHT22;21637;53.352;-6.356;2023-06-14T06:37:43;20.80;99.90
35531;DHT22;21637;53.352;-6.356;2023-06-14T06:40:09;20.80;99.90
35531;DHT22;21637;53.352;-6.356;2023-06-14T06:42:35;20.90;99.90
35531;DHT22;21637;53.352;-6.356;2023-06-14T06:45:01;20.90;99.90
35531;DHT22;21637;53.352;-6.356;2023-06-14T06:47:27;21.00;99.90
35531;DHT22;21637;53.352;-6.356;2023-06-14T06:49:53;21.10;99.90
35531;DHT22;21637;53.352;-6.356;2023-06-14T06:52:19;21.00;99.90
35531;DHT22;21637;53.352;-6.356;2023-06-14T06:54:45;21.10;99.90
35531;DHT22;21637;53.352;-6.356;2023-06-14T06:57:10;21.10;99.90
35531;DHT22;21637;53.352;-6.356;2023-06-14T06:59:36;21.00;99.90
35531;DHT22;21637;53.352;-6.356;2023-06-14T07:02:03;21.10;99.90
35531;DHT22;21637;53.352;-6.356;2023-06-14T07:04:28;21.10;99.90
35531;DHT22;21637;53.352;-6.356;2023-06-14T07:06:54;21.20;99.90
35531;DHT22;21637;53.352;-6.356;2023-06-14T07:09:20;21.30;99.90
35531;DHT22;21637;53.352;-6.356;2023-06-14T07:11:47;21.30;99.90
35531;DHT22;21637;53.352;-6.356;2023-06-14T07:14:13;21.30;99.90
35531;DHT22;21637;53.352;-6.356;2023-06-14T07:16:39;21.40;99.90
35531;DHT22;21637;53.352;-6.356;2023-06-14T07:19:04;21.50;99.90
35531;DHT22;21637;53.352;-6.356;2023-06-14T07:21:30;21.60;99.90
35531;DHT22;21637;53.352;-6.356;2023-06-14T07:23:56;21.60;99.90
35531;DHT22;21637;53.352;-6.356;2023-06-14T07:26:22;21.60;99.90
35531;DHT22;21637;53.352;-6.356;2023-06-14T07:28:48;21.70;99.90
35531;DHT22;21637;53.352;-6.356;2023-06-14T07:31:15;21.70;99.90
35531;DHT22;21637;53.352;-6.356;2023-06-14T07:33:42;21.80;99.90
35531;DHT22;21637;53.352;-6.356;2023-06-14T07:36:08;21.90;99.90
35531;DHT22;21637;53.352;-6.356;2023-06-14T07:38:34;22.00;99.90
35531;DHT22;21637;53.352;-6.356;2023-06-14T07:41:00;22.10;99.90
35531;DHT22;21637;53.352;-6.356;2023-06-14T07:43:26;22.10;99.90
35531;DHT22;21637;53.352;-6.356;2023-06-14T07:45:52;22.30;99.90
35531;DHT22;21637;53.352;-6.356;2023-06-14T07:48:18;22.20;99.90
35531;DHT22;21637;53.352;-6.356;2023-06-14T07:50:44;22.30;99.90
35531;DHT22;21637;53.352;-6.356;2023-06-14T07:53:10;22.30;99.90
35531;DHT22;21637;53.352;-6.356;2023-06-14T07:55:35;22.30;99.90
35531;DHT22;21637;53.352;-6.356;2023-06-14T07:58:06;22.40;99.90
35531;DHT22;21637;53.352;-6.356;2023-06-14T08:00:32;22.40;99.90
35531;DHT22;21637;53.352;-6.356;2023-06-14T08:02:58;22.40;99.90
35531;DHT22;21637;53.352;-6.356;2023-06-14T08:05:28;22.40;99.90
35531;DHT22;21637;53.352;-6.356;2023-06-14T08:07:54;22.50;99.90
35531;DHT22;21637;53.352;-6.356;2023-06-14T08:10:21;22.60;99.90
35531;DHT22;21637;53.352;-6.356;2023-06-14T08:12:47;22.60;99.90
35531;DHT22;21637;53.352;-6.356;2023-06-14T08:15:17;22.60;99.90
35531;DHT22;21637;53.352;-6.356;2023-06-14T08:17:43;22.50;99.90
35531;DHT22;21637;53.352;-6.356;2023-06-14T08:20:09;22.50;99.90
35531;DHT22;21637;53.352;-6.356;2023-06-14T08:22:36;22.50;99.90
35531;DHT22;21637;53.352;-6.356;2023-06-14T08:25:03;22.60;99.90
35531;DHT22;21637;53.352;-6.356;2023-06-14T08:27:29;22.50;99.90
35531;DHT22;21637;53.352;-6.356;2023-06-14T08:29:55;22.60;99.90
35531;DHT22;21637;53.352;-6.356;2023-06-14T08:32:22;22.60;99.90
35531;DHT22;21637;53.352;-6.356;2023-06-14T08:34:48;22.70;99.90
35531;DHT22;21637;53.352;-6.356;2023-06-14T08:37:13;22.80;99.90
35531;DHT22;21637;53.352;-6.356;2023-06-14T08:39:39;22.90;99.90
35531;DHT22;21637;53.352;-6.356;2023-06-14T08:42:06;22.80;99.90
35531;DHT22;21637;53.352;-6.356;2023-06-14T08:44:33;22.80;99.90
35531;DHT22;21637;53.352;-6.356;2023-06-14T08:46:59;22.60;99.90
35531;DHT22;21637;53.352;-6.356;2023-06-14T08:49:26;22.60;99.90
35531;DHT22;21637;53.352;-6.356;2023-06-14T08:52:00;22.50;99.90
35531;DHT22;21637;53.352;-6.356;2023-06-14T08:54:27;22.50;99.90
35531;DHT22;21637;53.352;-6.356;2023-06-14T08:56:56;21.30;99.90
35531;DHT22;21637;53.352;-6.356;2023-06-14T08:59:31;20.60;99.90
35531;DHT22;21637;53.352;-6.356;2023-06-14T09:02:05;20.30;99.90
35531;DHT22;21637;53.352;-6.356;2023-06-14T09:04:32;20.30;99.90
35531;DHT22;21637;53.352;-6.356;2023-06-14T09:06:58;20.50;99.90
35531;DHT22;21637;53.352;-6.356;2023-06-14T09:09:24;20.70;99.90
35531;DHT22;21637;53.352;-6.356;2023-06-14T09:11:51;20.90;99.90
35531;DHT22;21637;53.352;-6.356;2023-06-14T09:14:19;21.10;99.90
35531;DHT22;21637;53.352;-6.356;2023-06-14T09:16:45;21.30;99.90
35531;DHT22;21637;53.352;-6.356;2023-06-14T09:19:31;21.50;99.90
35531;DHT22;21637;53.352;-6.356;2023-06-14T09:21:56;21.70;99.90
35531;DHT22;21637;53.352;-6.356;2023-06-14T09:24:24;21.70;99.90
35531;DHT22;21637;53.352;-6.356;2023-06-14T09:26:51;21.80;99.90
35531;DHT22;21637;53.352;-6.356;2023-06-14T09:29:18;21.70;99.90
35531;DHT22;21637;53.352;-6.356;2023-06-14T09:31:46;21.80;99.90
35531;DHT22;21637;53.352;-6.356;2023-06-14T09:34:12;21.60;99.90
35531;DHT22;21637;53.352;-6.356;2023-06-14T09:36:39;21.60;99.90
35531;DHT22;21637;53.352;-6.356;2023-06-14T09:39:06;21.70;99.90
35531;DHT22;21637;53.352;-6.356;2023-06-14T09:41:40;21.90;99.90
35531;DHT22;21637;53.352;-6.356;2023-06-14T09:44:10;22.10;99.90
35531;DHT22;21637;53.352;-6.356;2023-06-14T09:46:38;22.20;99.90
35531;DHT22;21637;53.352;-6.356;2023-06-14T09:49:04;21.90;99.90
35531;DHT22;21637;53.352;-6.356;2023-06-14T09:51:31;21.80;99.90
35531;DHT22;21637;53.352;-6.356;2023-06-14T09:54:00;21.90;99.90
35531;DHT22;21637;53.352;-6.356;2023-06-14T09:56:34;22.00;99.90
35531;DHT22;21637;53.352;-6.356;2023-06-14T09:59:03;22.00;99.90
35531;DHT22;21637;53.352;-6.356;2023-06-14T10:01:31;22.10;99.90
35531;DHT22;21637;53.352;-6.356;2023-06-14T10:04:03;22.30;99.90
35531;DHT22;21637;53.352;-6.356;2023-06-14T10:06:30;22.20;99.90
35531;DHT22;21637;53.352;-6.356;2023-06-14T10:08:59;22.20;99.90
35531;DHT22;21637;53.352;-6.356;2023-06-14T10:11:26;22.10;99.90
35531;DHT22;21637;53.352;-6.356;2023-06-14T10:13:54;21.80;99.90
35531;DHT22;21637;53.352;-6.356;2023-06-14T10:19:42;21.90;99.90
35531;DHT22;21637;53.352;-6.356;2023-06-14T10:22:14;21.70;99.90
35531;DHT22;21637;53.352;-6.356;2023-06-14T10:24:44;21.70;99.90
35531;DHT22;21637;53.352;-6.356;2023-06-14T10:27:10;21.70;99.90
35531;DHT22;21637;53.352;-6.356;2023-06-14T10:32:20;21.80;99.90
35531;DHT22;21637;53.352;-6.356;2023-06-14T10:34:57;21.70;99.90
35531;DHT22;21637;53.352;-6.356;2023-06-14T10:37:23;21.90;99.90
35531;DHT22;21637;53.352;-6.356;2023-06-14T10:39:50;21.90;99.90
35531;DHT22;21637;53.352;-6.356;2023-06-14T10:42:16;22.00;99.90
35531;DHT22;21637;53.352;-6.356;2023-06-14T10:44:42;21.90;99.90
35531;DHT22;21637;53.352;-6.356;2023-06-14T10:47:32;21.90;99.90
35531;DHT22;21637;53.352;-6.356;2023-06-14T10:50:10;21.80;99.90
35531;DHT22;21637;53.352;-6.356;2023-06-14T10:52:43;21.80;99.90
35531;DHT22;21637;53.352;-6.356;2023-06-14T10:55:16;21.70;99.90
35531;DHT22;21637;53.352;-6.356;2023-06-14T10:57:45;21.70;99.90
35531;DHT22;21637;53.352;-6.356;2023-06-14T11:00:13;21.80;99.90
35531;DHT22;21637;53.352;-6.356;2023-06-14T11:03:01;21.70;99.90
35531;DHT22;21637;53.352;-6.356;2023-06-14T11:05:30;21.40;99.90
35531;DHT22;21637;53.352;-6.356;2023-06-14T11:10:43;21.20;99.90
35531;DHT22;21637;53.352;-6.356;2023-06-14T11:13:09;21.20;99.90
35531;DHT22;21637;53.352;-6.356;2023-06-14T11:15:36;21.20;99.90
35531;DHT22;21637;53.352;-6.356;2023-06-14T11:18:03;21.20;99.90
35531;DHT22;21637;53.352;-6.356;2023-06-14T11:20:34;21.00;99.90
35531;DHT22;21637;53.352;-6.356;2023-06-14T11:23:01;21.00;99.90
35531;DHT22;21637;53.352;-6.356;2023-06-14T11:25:28;21.10;99.90
35531;DHT22;21637;53.352;-6.356;2023-06-14T11:27:54;21.20;99.90
35531;DHT22;21637;53.352;-6.356;2023-06-14T11:30:20;20.90;99.90
35531;DHT22;21637;53.352;-6.356;2023-06-14T11:32:47;21.00;99.90
35531;DHT22;21637;53.352;-6.356;2023-06-14T11:35:13;21.00;99.90
35531;DHT22;21637;53.352;-6.356;2023-06-14T11:37:39;20.90;99.90
35531;DHT22;21637;53.352;-6.356;2023-06-14T11:40:08;21.00;99.90
35531;DHT22;21637;53.352;-6.356;2023-06-14T11:42:35;21.00;99.90
35531;DHT22;21637;53.352;-6.356;2023-06-14T11:45:02;21.10;99.90
35531;DHT22;21637;53.352;-6.356;2023-06-14T11:47:46;21.40;99.90
35531;DHT22;21637;53.352;-6.356;2023-06-14T11:50:12;21.40;99.90
35531;DHT22;21637;53.352;-6.356;2023-06-14T11:52:38;21.20;99.90
35531;DHT22;21637;53.352;-6.356;2023-06-14T11:55:04;21.20;99.90
35531;DHT22;21637;53.352;-6.356;2023-06-14T11:57:34;21.20;99.90
35531;DHT22;21637;53.352;-6.356;2023-06-14T12:00:03;21.30;99.90
35531;DHT22;21637;53.352;-6.356;2023-06-14T12:02:32;21.30;99.90
35531;DHT22;21637;53.352;-6.356;2023-06-14T12:05:04;21.20;99.90
35531;DHT22;21637;53.352;-6.356;2023-06-14T12:07:33;21.10;99.90
35531;DHT22;21637;53.352;-6.356;2023-06-14T12:12:25;20.90;99.90
35531;DHT22;21637;53.352;-6.356;2023-06-14T12:14:51;21.00;99.90
35531;DHT22;21637;53.352;-6.356;2023-06-14T12:17:18;20.90;99.90
35531;DHT22;21637;53.352;-6.356;2023-06-14T12:19:45;21.00;99.90
35531;DHT22;21637;53.352;-6.356;2023-06-14T12:22:12;21.00;99.90
35531;DHT22;21637;53.352;-6.356;2023-06-14T12:24:39;20.90;99.90
35531;DHT22;21637;53.352;-6.356;2023-06-14T12:27:08;21.00;99.90
35531;DHT22;21637;53.352;-6.356;2023-06-14T12:29:34;21.20;99.90
35531;DHT22;21637;53.352;-6.356;2023-06-14T12:32:00;21.20;99.90
35531;DHT22;21637;53.352;-6.356;2023-06-14T12:34:29;21.10;99.90
35531;DHT22;21637;53.352;-6.356;2023-06-14T12:36:56;21.10;99.90
35531;DHT22;21637;53.352;-6.356;2023-06-14T12:39:22;21.00;99.90
35531;DHT22;21637;53.352;-6.356;2023-06-14T12:41:48;21.00;99.90
35531;DHT22;21637;53.352;-6.356;2023-06-14T12:44:14;21.00;99.90
35531;DHT22;21637;53.352;-6.356;2023-06-14T12:46:43;20.90;99.90
35531;DHT22;21637;53.352;-6.356;2023-06-14T12:49:11;21.00;99.90
35531;DHT22;21637;53.352;-6.356;2023-06-14T12:51:38;21.00;99.90
35531;DHT22;21637;53.352;-6.356;2023-06-14T12:54:05;21.10;99.90
35531;DHT22;21637;53.352;-6.356;2023-06-14T12:56:31;20.90;99.90
35531;DHT22;21637;53.352;-6.356;2023-06-14T12:58:57;21.00;99.90
35531;DHT22;21637;53.352;-6.356;2023-06-14T13:01:23;21.00;99.90
35531;DHT22;21637;53.352;-6.356;2023-06-14T13:03:49;21.10;99.90
35531;DHT22;21637;53.352;-6.356;2023-06-14T13:06:17;21.10;99.90
35531;DHT22;21637;53.352;-6.356;2023-06-14T13:08:43;21.10;99.90
35531;DHT22;21637;53.352;-6.356;2023-06-14T13:11:09;21.00;99.90
35531;DHT22;21637;53.352;-6.356;2023-06-14T13:13:34;21.00;99.90
35531;DHT22;21637;53.352;-6.356;2023-06-14T13:16:00;21.00;99.90
35531;DHT22;21637;53.352;-6.356;2023-06-14T13:18:26;21.00;99.90
35531;DHT22;21637;53.352;-6.356;2023-06-14T13:20:52;21.00;99.90
35531;DHT22;21637;53.352;-6.356;2023-06-14T13:23:17;21.10;99.90
35531;DHT22;21637;53.352;-6.356;2023-06-14T13:25:43;21.10;99.90
35531;DHT22;21637;53.352;-6.356;2023-06-14T13:28:09;21.20;99.90
35531;DHT22;21637;53.352;-6.356;2023-06-14T13:30:35;21.20;99.90
35531;DHT22;21637;53.352;-6.356;2023-06-14T13:33:01;21.00;99.90
35531;DHT22;21637;53.352;-6.356;2023-06-14T13:35:27;21.00;99.90
35531;DHT22;21637;53.352;-6.356;2023-06-14T13:37:53;21.20;99.90
35531;DHT22;21637;53.352;-6.356;2023-06-14T13:40:19;21.30;99.90
35531;DHT22;21637;53.352;-6.356;2023-06-14T13:42:46;21.30;99.90
35531;DHT22;21637;53.352;-6.356;2023-06-14T13:45:12;21.30;99.90
35531;DHT22;21637;53.352;-6.356;2023-06-14T13:47:39;21.30;99.90
35531;DHT22;21637;53.352;-6.356;2023-06-14T13:50:05;21.40;99.90
35531;DHT22;21637;53.352;-6.356;2023-06-14T13:52:31;21.50;99.90
35531;DHT22;21637;53.352;-6.356;2023-06-14T13:54:57;21.50;99.90
35531;DHT22;21637;53.352;-6.356;2023-06-14T13:57:22;21.60;99.90
35531;DHT22;21637;53.352;-6.356;2023-06-14T13:59:48;21.50;99.90
35531;DHT22;21637;53.352;-6.356;2023-06-14T14:02:14;21.40;99.90
35531;DHT22;21637;53.352;-6.356;2023-06-14T14:04:40;21.50;99.90
35531;DHT22;21637;53.352;-6.356;2023-06-14T14:07:06;21.70;99.90
35531;DHT22;21637;53.352;-6.356;2023-06-14T14:09:33;21.70;99.90
35531;DHT22;21637;53.352;-6.356;2023-06-14T14:12:00;21.80;99.90
35531;DHT22;21637;53.352;-6.356;2023-06-14T14:14:27;21.90;99.90
35531;DHT22;21637;53.352;-6.356;2023-06-14T14:16:53;21.80;99.90
35531;DHT22;21637;53.352;-6.356;2023-06-14T14:19:21;21.90;99.90
35531;DHT22;21637;53.352;-6.356;2023-06-14T14:21:47;21.90;99.90
35531;DHT22;21637;53.352;-6.356;2023-06-14T14:24:13;21.70;99.90
35531;DHT22;21637;53.352;-6.356;2023-06-14T14:26:39;21.90;99.90
35531;DHT22;21637;53.352;-6.356;2023-06-14T14:29:05;21.60;99.90
35531;DHT22;21637;53.352;-6.356;2023-06-14T14:31:31;21.60;99.90
35531;DHT22;21637;53.352;-6.356;2023-06-14T14:33:57;21.80;99.90
35531;DHT22;21637;53.352;-6.356;2023-06-14T14:36:23;22.00;99.90
35531;DHT22;21637;53.352;-6.356;2023-06-14T14:38:49;21.90;99.90
35531;DHT22;21637;53.352;-6.356;2023-06-14T14:41:17;22.00;99.90
35531;DHT22;21637;53.352;-6.356;2023-06-14T14:43:43;22.20;99.90
35531;DHT22;21637;53.352;-6.356;2023-06-14T14:46:09;22.30;99.90
35531;DHT22;21637;53.352;-6.356;2023-06-14T14:48:35;22.20;99.90
35531;DHT22;21637;53.352;-6.356;2023-06-14T14:51:00;22.40;99.90
35531;DHT22;21637;53.352;-6.356;2023-06-14T14:53:26;22.50;99.90
35531;DHT22;21637;53.352;-6.356;2023-06-14T14:55:52;22.80;99.90
35531;DHT22;21637;53.352;-6.356;2023-06-14T14:58:18;23.00;99.90
35531;DHT22;21637;53.352;-6.356;2023-06-14T15:00:47;23.30;99.90
35531;DHT22;21637;53.352;-6.356;2023-06-14T15:03:13;23.50;99.90
35531;DHT22;21637;53.352;-6.356;2023-06-14T15:05:40;23.90;99.90
35531;DHT22;21637;53.352;-6.356;2023-06-14T15:08:06;24.20;99.90
35531;DHT22;21637;53.352;-6.356;2023-06-14T15:10:38;24.40;99.90
35531;DHT22;21637;53.352;-6.356;2023-06-14T15:13:08;24.30;99.90
35531;DHT22;21637;53.352;-6.356;2023-06-14T15:15:35;24.30;99.90
35531;DHT22;21637;53.352;-6.356;2023-06-14T15:18:01;24.40;99.90
35531;DHT22;21637;53.352;-6.356;2023-06-14T15:20:27;24.30;99.90
35531;DHT22;21637;53.352;-6.356;2023-06-14T15:22:54;24.30;99.90
35531;DHT22;21637;53.352;-6.356;2023-06-14T15:25:27;24.50;99.90
35531;DHT22;21637;53.352;-6.356;2023-06-14T15:27:54;24.60;99.90
35531;DHT22;21637;53.352;-6.356;2023-06-14T15:30:20;24.60;99.90
35531;DHT22;21637;53.352;-6.356;2023-06-14T15:32:46;24.70;99.90